createdAt,value
2018-02-17T00:00:17.486Z,13.50
2018-02-17T00:01:17.452Z,13.70
2018-02-17T00:02:17.428Z,13.10
2018-02-17T00:03:17.396Z,13.60
2018-02-17T00:04:17.371Z,13.80
2018-02-17T00:05:17.351Z,13.40
2018-02-17T00:06:17.316Z,14.10
2018-02-17T00:07:17.289Z,14.10
2018-02-17T00:08:17.256Z,14.10
2018-02-17T00:09:17.234Z,13.60
2018-02-17T00:10:17.204Z,13.70
2018-02-17T00:11:17.180Z,14.10
2018-02-17T00:12:17.143Z,14.50
2018-02-17T00:13:17.121Z,15.00
2018-02-17T00:14:17.091Z,15.80
2018-02-17T00:15:17.068Z,15.70
2018-02-17T00:16:17.038Z,15.20
2018-02-17T00:17:17.011Z,16.00
2018-02-17T00:18:16.981Z,15.80
2018-02-17T00:19:16.961Z,16.30
2018-02-17T00:20:16.924Z,15.80
2018-02-17T00:21:16.899Z,15.00
2018-02-17T00:22:16.870Z,15.40
2018-02-17T00:23:16.847Z,14.00
2018-02-17T00:24:16.818Z,14.50
2018-02-17T00:25:16.795Z,13.50
2018-02-17T00:26:16.758Z,13.70
2018-02-17T00:27:16.730Z,13.80
2018-02-17T00:28:16.708Z,13.90
2018-02-17T00:29:16.676Z,14.10
2018-02-17T00:30:16.651Z,14.00
2018-02-17T00:31:16.624Z,14.60
2018-02-17T00:32:16.596Z,14.20
2018-02-17T00:33:16.564Z,14.20
2018-02-17T00:34:16.543Z,13.60
2018-02-17T00:35:16.513Z,13.70
2018-02-17T00:36:16.534Z,13.70
2018-02-17T00:37:16.459Z,13.10
2018-02-17T00:38:16.429Z,13.00
2018-02-17T00:39:16.399Z,13.10
2018-02-17T00:40:16.375Z,13.40
2018-02-17T00:41:16.346Z,13.50
2018-02-17T00:42:16.319Z,13.50
2018-02-17T00:43:16.289Z,14.00
2018-02-17T00:44:16.266Z,13.70
2018-02-17T00:45:16.235Z,14.10
2018-02-17T00:46:16.206Z,14.40
2018-02-17T00:47:16.179Z,14.20
2018-02-17T00:48:16.154Z,14.70
2018-02-17T00:49:16.129Z,14.90
2018-02-17T00:50:16.095Z,14.70
2018-02-17T00:51:16.070Z,14.80
2018-02-17T00:52:16.045Z,15.60
2018-02-17T00:53:16.009Z,14.30
2018-02-17T00:54:15.993Z,14.40
2018-02-17T00:55:15.957Z,14.00
2018-02-17T00:56:15.935Z,14.30
2018-02-17T00:57:15.899Z,14.20
2018-02-17T00:58:15.876Z,14.60
2018-02-17T00:59:15.844Z,14.40
2018-02-17T01:00:15.820Z,14.40
2018-02-17T01:01:15.791Z,13.60
2018-02-17T01:02:15.764Z,14.30
2018-02-17T01:03:15.731Z,13.90
2018-02-17T01:04:15.707Z,14.50
2018-02-17T01:05:15.681Z,14.70
2018-02-17T01:06:15.650Z,14.10
2018-02-17T01:07:15.620Z,14.30
2018-02-17T01:08:15.594Z,14.10
2018-02-17T01:09:15.567Z,14.40
2018-02-17T01:10:15.544Z,13.70
2018-02-17T01:11:15.510Z,13.70
2018-02-17T01:12:15.484Z,13.30
2018-02-17T01:13:15.455Z,13.90
2018-02-17T01:14:15.429Z,14.30
2018-02-17T01:15:15.401Z,14.00
2018-02-17T01:16:15.374Z,13.10
2018-02-17T01:17:15.345Z,13.60
2018-02-17T01:18:15.319Z,13.80
2018-02-17T01:19:15.291Z,13.10
2018-02-17T01:20:15.260Z,14.30
2018-02-17T01:21:15.234Z,13.90
2018-02-17T01:22:15.207Z,13.80
2018-02-17T01:23:15.177Z,13.60
2018-02-17T01:24:15.149Z,13.40
2018-02-17T01:25:15.120Z,13.40
2018-02-17T01:26:15.090Z,13.90
2018-02-17T01:27:15.065Z,13.80
2018-02-17T01:28:15.035Z,14.40
2018-02-17T01:29:15.008Z,14.20
2018-02-17T01:30:14.979Z,14.60
2018-02-17T01:31:14.953Z,14.40
2018-02-17T01:32:14.921Z,14.10
2018-02-17T01:33:14.894Z,14.70
2018-02-17T01:34:14.873Z,14.10
2018-02-17T01:35:14.836Z,13.40
2018-02-17T01:36:14.812Z,14.10
2018-02-17T01:37:14.780Z,14.20
2018-02-17T01:38:14.750Z,13.40
2018-02-17T01:39:14.725Z,14.60
2018-02-17T01:40:14.696Z,14.20
2018-02-17T01:41:14.671Z,13.70
2018-02-17T01:42:14.639Z,14.00
2018-02-17T01:43:14.609Z,14.40
2018-02-17T01:44:14.586Z,14.20
2018-02-17T01:45:14.558Z,14.20
2018-02-17T01:46:14.527Z,14.30
2018-02-17T01:47:14.498Z,14.90
2018-02-17T01:48:14.476Z,14.60
2018-02-17T01:49:14.440Z,14.60
2018-02-17T01:50:14.412Z,14.20
2018-02-17T01:51:14.387Z,14.70
2018-02-17T01:52:14.356Z,15.10
2018-02-17T01:53:14.327Z,16.10
2018-02-17T01:54:14.302Z,15.50
2018-02-17T01:55:14.276Z,14.90
2018-02-17T01:56:14.249Z,14.50
2018-02-17T01:57:14.217Z,14.90
2018-02-17T01:58:14.190Z,15.10
2018-02-17T01:59:14.162Z,15.30
2018-02-17T02:00:14.133Z,15.80
2018-02-17T02:01:14.103Z,15.50
2018-02-17T02:02:14.079Z,15.10
2018-02-17T02:03:14.050Z,15.60
2018-02-17T02:04:14.018Z,16.00
2018-02-17T02:05:13.990Z,15.70
2018-02-17T02:06:13.960Z,16.90
2018-02-17T02:07:13.932Z,16.10
2018-02-17T02:08:13.908Z,16.10
2018-02-17T02:09:13.874Z,16.80
2018-02-17T02:10:13.854Z,16.00
2018-02-17T02:11:13.819Z,16.10
2018-02-17T02:12:13.791Z,16.00
2018-02-17T02:13:13.765Z,16.20
2018-02-17T02:14:13.734Z,15.30
2018-02-17T02:15:13.710Z,15.70
2018-02-17T02:16:13.680Z,15.50
2018-02-17T02:17:13.652Z,15.70
2018-02-17T02:18:13.622Z,14.70
2018-02-17T02:19:13.598Z,14.90
2018-02-17T02:20:13.566Z,15.80
2018-02-17T02:21:13.534Z,16.80
2018-02-17T02:22:13.509Z,16.10
2018-02-17T02:23:13.484Z,16.30
2018-02-17T02:24:13.453Z,15.40
2018-02-17T02:25:13.426Z,16.00
2018-02-17T02:26:13.402Z,16.30
2018-02-17T02:27:13.369Z,15.80
2018-02-17T02:28:13.341Z,17.20
2018-02-17T02:29:13.310Z,16.80
2018-02-17T02:30:13.294Z,16.30
2018-02-17T02:31:13.257Z,17.20
2018-02-17T02:32:13.224Z,16.20
2018-02-17T02:33:13.196Z,16.60
2018-02-17T02:34:13.176Z,16.40
2018-02-17T02:35:13.147Z,16.10
2018-02-17T02:36:13.112Z,17.00
2018-02-17T02:37:13.085Z,16.70
2018-02-17T02:38:13.058Z,16.80
2018-02-17T02:39:13.027Z,16.30
2018-02-17T02:40:13.001Z,16.20
2018-02-17T02:41:12.973Z,16.90
2018-02-17T02:42:12.941Z,16.90
2018-02-17T02:43:12.913Z,17.10
2018-02-17T02:44:12.886Z,16.60
2018-02-17T02:45:12.858Z,15.60
2018-02-17T02:46:12.832Z,16.00
2018-02-17T02:47:12.803Z,16.00
2018-02-17T02:48:12.776Z,15.70
2018-02-17T02:49:12.745Z,16.60
2018-02-17T02:50:12.715Z,16.90
2018-02-17T02:51:12.687Z,17.20
2018-02-17T02:52:12.660Z,16.00
2018-02-17T02:53:12.630Z,16.10
2018-02-17T02:54:12.601Z,17.00
2018-02-17T02:55:12.576Z,17.20
2018-02-17T02:56:12.547Z,17.20
2018-02-17T02:57:12.516Z,16.80
2018-02-17T02:58:12.491Z,17.20
2018-02-17T02:59:12.464Z,17.50
2018-02-17T03:00:12.433Z,17.70
2018-02-17T03:01:12.402Z,16.80
2018-02-17T03:02:12.376Z,17.20
2018-02-17T03:03:12.344Z,16.60
2018-02-17T03:04:12.320Z,17.20
2018-02-17T03:05:12.294Z,17.70
2018-02-17T03:06:12.263Z,16.10
2018-02-17T03:07:12.235Z,16.20
2018-02-17T03:08:12.203Z,16.60
2018-02-17T03:09:12.171Z,15.80
2018-02-17T03:10:12.149Z,16.00
2018-02-17T03:11:12.121Z,15.60
2018-02-17T03:12:12.095Z,15.20
2018-02-17T03:13:12.061Z,15.00
2018-02-17T03:14:12.039Z,15.80
2018-02-17T03:15:12.004Z,16.40
2018-02-17T03:16:11.979Z,15.60
2018-02-17T03:17:11.945Z,15.60
2018-02-17T03:18:11.921Z,15.90
2018-02-17T03:19:11.889Z,16.10
2018-02-17T03:20:11.861Z,16.40
2018-02-17T03:21:11.833Z,15.90
2018-02-17T03:22:11.803Z,15.70
2018-02-17T03:23:11.776Z,16.00
2018-02-17T03:24:11.751Z,15.80
2018-02-17T03:25:11.721Z,16.20
2018-02-17T03:26:11.694Z,16.10
2018-02-17T03:27:11.663Z,16.00
2018-02-17T03:28:11.644Z,15.20
2018-02-17T03:29:11.608Z,16.10
2018-02-17T03:30:11.579Z,15.90
2018-02-17T03:31:11.547Z,16.10
2018-02-17T03:32:11.524Z,15.80
2018-02-17T03:33:11.493Z,16.20
2018-02-17T03:34:11.463Z,16.50
2018-02-17T03:35:11.432Z,16.20
2018-02-17T03:36:11.410Z,16.90
2018-02-17T03:37:11.381Z,17.60
2018-02-17T03:38:11.355Z,17.30
2018-02-17T03:39:11.322Z,17.40
2018-02-17T03:40:11.296Z,16.50
2018-02-17T03:41:11.267Z,16.10
2018-02-17T03:42:11.236Z,16.10
2018-02-17T03:43:11.206Z,16.00
2018-02-17T03:44:11.184Z,15.70
2018-02-17T03:45:11.169Z,16.30
2018-02-17T03:46:11.120Z,16.30
2018-02-17T03:47:11.092Z,16.80
2018-02-17T03:48:11.067Z,17.10
2018-02-17T03:49:11.039Z,17.80
2018-02-17T03:50:11.010Z,17.00
2018-02-17T03:51:10.983Z,17.60
2018-02-17T03:52:10.950Z,17.40
2018-02-17T03:53:10.918Z,17.30
2018-02-17T03:54:10.893Z,17.60
2018-02-17T03:55:10.864Z,18.00
2018-02-17T03:56:10.836Z,17.30
2018-02-17T03:57:10.811Z,17.70
2018-02-17T03:58:10.783Z,17.90
2018-02-17T03:59:10.750Z,17.10
2018-02-17T04:00:10.718Z,16.40
2018-02-17T04:01:10.695Z,17.40
2018-02-17T04:02:10.662Z,16.60
2018-02-17T04:03:10.640Z,17.20
2018-02-17T04:04:10.605Z,16.60
2018-02-17T04:05:10.576Z,17.20
2018-02-17T04:06:10.551Z,17.10
2018-02-17T04:07:10.572Z,17.50
2018-02-17T04:08:10.493Z,16.00
2018-02-17T04:09:10.462Z,17.20
2018-02-17T04:10:10.439Z,16.50
2018-02-17T04:11:10.408Z,17.30
2018-02-17T04:12:10.380Z,16.50
2018-02-17T04:13:10.346Z,16.50
2018-02-17T04:14:10.322Z,17.00
2018-02-17T04:15:10.290Z,16.40
2018-02-17T04:16:10.268Z,16.90
2018-02-17T04:17:10.234Z,16.70
2018-02-17T04:18:10.208Z,16.50
2018-02-17T04:19:10.182Z,16.30
2018-02-17T04:20:10.152Z,16.40
2018-02-17T04:21:10.128Z,16.40
2018-02-17T04:22:10.094Z,16.30
2018-02-17T04:23:10.065Z,16.60
2018-02-17T04:24:10.038Z,16.80
2018-02-17T04:25:10.001Z,17.10
2018-02-17T04:26:09.980Z,17.50
2018-02-17T04:27:09.947Z,16.80
2018-02-17T04:28:09.918Z,17.20
2018-02-17T04:29:09.892Z,17.60
2018-02-17T04:30:09.861Z,16.90
2018-02-17T04:31:09.836Z,17.10
2018-02-17T04:32:09.813Z,17.40
2018-02-17T04:33:09.779Z,17.90
2018-02-17T04:34:09.750Z,17.60
2018-02-17T04:35:09.722Z,17.40
2018-02-17T04:36:09.694Z,17.40
2018-02-17T04:37:09.661Z,17.20
2018-02-17T04:38:09.635Z,17.10
2018-02-17T04:39:09.609Z,17.40
2018-02-17T04:40:09.582Z,17.10
2018-02-17T04:41:09.551Z,17.00
2018-02-17T04:42:09.518Z,16.50
2018-02-17T04:43:09.495Z,16.70
2018-02-17T04:44:09.462Z,17.00
2018-02-17T04:45:09.438Z,16.90
2018-02-17T04:46:09.407Z,16.70
2018-02-17T04:47:09.375Z,16.60
2018-02-17T04:48:09.352Z,18.10
2018-02-17T04:49:09.323Z,17.30
2018-02-17T04:50:09.290Z,16.70
2018-02-17T04:51:09.267Z,17.20
2018-02-17T04:52:09.238Z,17.00
2018-02-17T04:53:09.207Z,16.80
2018-02-17T04:54:09.180Z,17.10
2018-02-17T04:55:09.149Z,17.80
2018-02-17T04:56:09.122Z,17.70
2018-02-17T04:57:09.092Z,18.00
2018-02-17T04:58:09.070Z,17.70
2018-02-17T04:59:09.036Z,17.60
2018-02-17T05:00:09.010Z,18.00
2018-02-17T05:01:08.979Z,17.90
2018-02-17T05:02:08.947Z,18.00
2018-02-17T05:03:08.924Z,17.30
2018-02-17T05:04:08.891Z,17.20
2018-02-17T05:05:08.863Z,17.90
2018-02-17T05:06:08.834Z,17.70
2018-02-17T05:07:08.806Z,18.40
2018-02-17T05:08:08.775Z,18.40
2018-02-17T05:09:08.743Z,18.60
2018-02-17T05:10:08.717Z,18.60
2018-02-17T05:11:08.694Z,17.90
2018-02-17T05:12:08.667Z,18.00
2018-02-17T05:13:08.635Z,18.80
2018-02-17T05:14:08.607Z,18.30
2018-02-17T05:15:08.580Z,17.90
2018-02-17T05:16:08.547Z,18.90
2018-02-17T05:17:08.515Z,17.90
2018-02-17T05:18:08.496Z,17.40
2018-02-17T05:19:08.461Z,17.50
2018-02-17T05:20:08.437Z,18.10
2018-02-17T05:21:08.404Z,18.00
2018-02-17T05:22:08.377Z,17.60
2018-02-17T05:23:08.349Z,17.80
2018-02-17T05:24:08.322Z,17.80
2018-02-17T05:25:08.288Z,18.50
2018-02-17T05:26:08.262Z,17.40
2018-02-17T05:27:08.233Z,16.80
2018-02-17T05:28:08.206Z,17.40
2018-02-17T05:29:08.177Z,17.10
2018-02-17T05:30:08.147Z,18.00
2018-02-17T05:31:08.116Z,17.30
2018-02-17T05:32:08.094Z,17.20
2018-02-17T05:33:08.060Z,17.70
2018-02-17T05:34:08.037Z,17.70
2018-02-17T05:35:08.011Z,17.00
2018-02-17T05:36:07.974Z,16.50
2018-02-17T05:37:07.945Z,17.40
2018-02-17T05:38:07.922Z,17.60
2018-02-17T05:39:07.892Z,18.50
2018-02-17T05:40:07.860Z,17.60
2018-02-17T05:41:07.832Z,18.20
2018-02-17T05:42:07.805Z,18.20
2018-02-17T05:43:07.776Z,18.20
2018-02-17T05:44:07.745Z,18.20
2018-02-17T05:45:07.718Z,18.70
2018-02-17T05:46:07.694Z,18.20
2018-02-17T05:47:07.661Z,17.60
2018-02-17T05:48:07.630Z,18.20
2018-02-17T05:49:07.602Z,18.10
2018-02-17T05:50:07.576Z,17.30
2018-02-17T05:51:07.549Z,18.20
2018-02-17T05:52:07.517Z,19.30
2018-02-17T05:53:07.488Z,18.60
2018-02-17T05:54:07.460Z,18.00
2018-02-17T05:55:07.432Z,17.60
2018-02-17T05:56:07.420Z,18.30
2018-02-17T05:57:07.371Z,18.30
2018-02-17T05:58:07.350Z,18.10
2018-02-17T05:59:07.320Z,17.70
2018-02-17T06:00:07.288Z,17.50
2018-02-17T06:01:07.254Z,18.40
2018-02-17T06:02:07.234Z,18.30
2018-02-17T06:03:07.207Z,18.10
2018-02-17T06:04:07.175Z,18.40
2018-02-17T06:05:07.149Z,17.80
2018-02-17T06:06:07.115Z,17.40
2018-02-17T06:07:07.090Z,18.80
2018-02-17T06:08:07.059Z,17.90
2018-02-17T06:09:07.034Z,18.00
2018-02-17T06:10:06.999Z,18.20
2018-02-17T06:11:06.975Z,19.00
2018-02-17T06:12:06.944Z,19.00
2018-02-17T06:13:06.918Z,19.20
2018-02-17T06:14:06.883Z,18.80
2018-02-17T06:15:06.862Z,18.80
2018-02-17T06:16:06.829Z,19.70
2018-02-17T06:17:06.805Z,19.20
2018-02-17T06:18:06.775Z,19.90
2018-02-17T06:19:06.749Z,19.70
2018-02-17T06:20:06.717Z,19.70
2018-02-17T06:21:06.692Z,18.80
2018-02-17T06:22:06.668Z,19.30
2018-02-17T06:23:06.626Z,18.50
2018-02-17T06:24:06.606Z,17.90
2018-02-17T06:25:06.569Z,18.30
2018-02-17T06:26:06.546Z,16.80
2018-02-17T06:27:06.516Z,18.00
2018-02-17T06:28:06.491Z,17.70
2018-02-17T06:29:06.458Z,17.70
2018-02-17T06:30:06.433Z,16.80
2018-02-17T06:31:06.461Z,17.90
2018-02-17T06:32:06.371Z,18.40
2018-02-17T06:33:06.343Z,18.70
2018-02-17T06:34:06.323Z,18.90
2018-02-17T06:35:06.297Z,18.90
2018-02-17T06:36:06.260Z,19.20
2018-02-17T06:37:06.238Z,18.80
2018-02-17T06:38:06.206Z,17.70
2018-02-17T06:39:06.180Z,17.40
2018-02-17T06:40:06.145Z,17.40
2018-02-17T06:41:06.115Z,18.20
2018-02-17T06:42:06.092Z,17.60
2018-02-17T06:43:06.063Z,16.50
2018-02-17T06:44:06.033Z,16.80
2018-02-17T06:45:06.009Z,17.10
2018-02-17T06:46:05.976Z,16.40
2018-02-17T06:47:05.950Z,17.30
2018-02-17T06:48:05.934Z,17.20
2018-02-17T06:49:05.895Z,17.10
2018-02-17T06:50:05.865Z,17.30
2018-02-17T06:51:05.839Z,17.20
2018-02-17T06:52:05.811Z,17.50
2018-02-17T06:53:05.778Z,18.40
2018-02-17T06:54:05.755Z,18.10
2018-02-17T06:55:05.724Z,17.60
2018-02-17T06:56:05.694Z,17.90
2018-02-17T06:57:05.663Z,18.10
2018-02-17T06:58:05.685Z,16.60
2018-02-17T06:59:05.671Z,18.50
2018-02-17T07:00:05.613Z,18.20
2018-02-17T07:01:05.613Z,18.20
2018-02-17T07:02:05.530Z,19.50
2018-02-17T07:03:05.513Z,18.10
2018-02-17T07:04:05.496Z,18.90
2018-02-17T07:05:05.441Z,18.10
2018-02-17T07:06:05.405Z,18.20
2018-02-17T07:07:05.384Z,18.20
2018-02-17T07:08:05.351Z,18.00
2018-02-17T07:09:05.325Z,17.20
2018-02-17T07:10:05.297Z,17.90
2018-02-17T07:11:05.269Z,18.30
2018-02-17T07:12:05.236Z,18.70
2018-02-17T07:13:05.211Z,18.00
2018-02-17T07:14:05.181Z,18.40
2018-02-17T07:15:05.152Z,18.60
2018-02-17T07:16:05.122Z,17.90
2018-02-17T07:17:05.093Z,18.60
2018-02-17T07:18:05.069Z,18.30
2018-02-17T07:19:05.039Z,18.10
2018-02-17T07:20:05.012Z,18.70
2018-02-17T07:21:04.983Z,18.60
2018-02-17T07:22:04.970Z,18.20
2018-02-17T07:23:04.922Z,19.10
2018-02-17T07:24:04.896Z,20.20
2018-02-17T07:25:04.875Z,20.60
2018-02-17T07:26:04.837Z,19.60
2018-02-17T07:27:04.812Z,20.00
2018-02-17T07:28:04.793Z,18.60
2018-02-17T07:29:04.751Z,19.10
2018-02-17T07:30:04.735Z,18.90
2018-02-17T07:31:04.701Z,19.20
2018-02-17T07:32:04.665Z,19.10
2018-02-17T07:33:04.640Z,18.40
2018-02-17T07:34:04.612Z,19.30
2018-02-17T07:35:04.600Z,18.90
2018-02-17T07:36:04.556Z,19.10
2018-02-17T07:37:04.530Z,19.40
2018-02-17T07:38:04.498Z,19.20
2018-02-17T07:39:04.468Z,19.00
2018-02-17T07:40:04.444Z,17.90
2018-02-17T07:41:04.413Z,18.00
2018-02-17T07:42:04.388Z,19.30
2018-02-17T07:43:04.351Z,19.40
2018-02-17T07:44:04.328Z,18.70
2018-02-17T07:45:04.298Z,18.20
2018-02-17T07:46:04.270Z,18.90
2018-02-17T07:47:04.245Z,17.80
2018-02-17T07:48:04.216Z,17.60
2018-02-17T07:49:04.188Z,18.60
2018-02-17T07:50:04.164Z,18.00
2018-02-17T07:51:04.134Z,18.00
2018-02-17T07:52:04.101Z,17.80
2018-02-17T07:53:04.077Z,18.80
2018-02-17T07:54:04.045Z,18.60
2018-02-17T07:55:04.020Z,17.50
2018-02-17T07:56:03.985Z,18.70
2018-02-17T07:57:03.960Z,19.30
2018-02-17T07:58:03.934Z,18.70
2018-02-17T07:59:03.941Z,19.20
2018-02-17T08:00:03.875Z,18.90
2018-02-17T08:01:03.848Z,18.90
2018-02-17T08:02:03.821Z,19.20
2018-02-17T08:03:03.800Z,18.50
2018-02-17T08:04:03.761Z,18.60
2018-02-17T08:05:03.736Z,18.90
2018-02-17T08:06:03.710Z,19.30
2018-02-17T08:07:03.679Z,19.40
2018-02-17T08:08:03.674Z,20.10
2018-02-17T08:09:03.621Z,19.40
2018-02-17T08:10:03.594Z,19.40
2018-02-17T08:11:03.565Z,20.60
2018-02-17T08:12:03.537Z,20.10
2018-02-17T08:13:03.618Z,19.20
2018-02-17T08:14:03.483Z,19.80
2018-02-17T08:15:03.452Z,20.60
2018-02-17T08:16:03.424Z,20.60
2018-02-17T08:17:03.394Z,19.70
2018-02-17T08:18:03.367Z,20.50
2018-02-17T08:19:03.369Z,21.00
2018-02-17T08:20:03.313Z,19.80
2018-02-17T08:21:03.294Z,20.20
2018-02-17T08:22:03.255Z,20.90
2018-02-17T08:23:03.224Z,22.20
2018-02-17T08:24:03.203Z,20.80
2018-02-17T08:25:03.169Z,20.70
2018-02-17T08:26:03.146Z,21.00
2018-02-17T08:27:03.117Z,21.70
2018-02-17T08:28:03.089Z,21.50
2018-02-17T08:29:03.061Z,21.90
2018-02-17T08:30:03.027Z,21.40
2018-02-17T08:31:03.002Z,22.80
2018-02-17T08:32:02.973Z,22.20
2018-02-17T08:33:02.951Z,23.00
2018-02-17T08:34:02.923Z,23.20
2018-02-17T08:35:02.891Z,22.00
2018-02-17T08:36:02.864Z,20.90
2018-02-17T08:37:02.836Z,22.10
2018-02-17T08:38:02.803Z,22.40
2018-02-17T08:39:02.774Z,21.00
2018-02-17T08:40:02.757Z,21.30
2018-02-17T08:41:02.724Z,21.00
2018-02-17T08:42:02.692Z,21.50
2018-02-17T08:43:02.674Z,21.00
2018-02-17T08:44:02.641Z,20.00
2018-02-17T08:45:02.611Z,20.70
2018-02-17T08:46:02.580Z,20.00
2018-02-17T08:47:02.556Z,20.40
2018-02-17T08:48:02.534Z,20.90
2018-02-17T08:49:02.501Z,20.80
2018-02-17T08:50:02.479Z,21.40
2018-02-17T08:51:02.449Z,22.10
2018-02-17T08:52:02.418Z,21.30
2018-02-17T08:53:02.390Z,21.90
2018-02-17T08:54:02.360Z,21.30
2018-02-17T08:55:02.334Z,22.30
2018-02-17T08:56:02.303Z,21.40
2018-02-17T08:57:02.279Z,22.30
2018-02-17T08:58:02.248Z,22.60
2018-02-17T08:59:02.226Z,22.50
2018-02-17T09:00:02.193Z,22.50
2018-02-17T09:01:02.164Z,23.20
2018-02-17T09:02:02.145Z,23.20
2018-02-17T09:03:02.108Z,23.10
2018-02-17T09:04:02.085Z,24.00
2018-02-17T09:05:02.056Z,23.40
2018-02-17T09:06:02.024Z,24.20
2018-02-17T09:07:02.000Z,23.60
2018-02-17T09:08:01.975Z,23.70
2018-02-17T09:09:01.943Z,24.00
2018-02-17T09:10:01.918Z,24.90
2018-02-17T09:11:01.890Z,23.80
2018-02-17T09:12:01.863Z,24.10
2018-02-17T09:13:01.833Z,23.60
2018-02-17T09:14:01.807Z,22.80
2018-02-17T09:15:01.777Z,22.50
2018-02-17T09:16:01.753Z,23.00
2018-02-17T09:17:01.726Z,22.60
2018-02-17T09:18:01.693Z,23.00
2018-02-17T09:19:01.668Z,23.50
2018-02-17T09:20:01.641Z,23.10
2018-02-17T09:21:01.619Z,23.70
2018-02-17T09:22:01.587Z,23.40
2018-02-17T09:23:01.575Z,22.50
2018-02-17T09:24:01.533Z,22.80
2018-02-17T09:25:01.506Z,23.30
2018-02-17T09:26:01.473Z,22.50
2018-02-17T09:27:01.448Z,22.60
2018-02-17T09:28:01.423Z,23.20
2018-02-17T09:29:01.398Z,23.20
2018-02-17T09:30:01.398Z,22.40
2018-02-17T09:31:01.340Z,22.70
2018-02-17T09:32:01.311Z,23.10
2018-02-17T09:33:01.284Z,23.10
2018-02-17T09:34:01.254Z,22.00
2018-02-17T09:35:01.231Z,22.80
2018-02-17T09:36:01.201Z,22.70
2018-02-17T09:37:01.174Z,23.80
2018-02-17T09:38:01.142Z,22.40
2018-02-17T09:39:01.121Z,22.00
2018-02-17T09:40:01.094Z,22.30
2018-02-17T09:41:01.059Z,22.90
2018-02-17T09:42:01.038Z,22.70
2018-02-17T09:43:01.010Z,23.70
2018-02-17T09:44:00.982Z,22.90
2018-02-17T09:45:00.954Z,22.90
2018-02-17T09:46:00.962Z,23.80
2018-02-17T09:47:00.902Z,22.50
2018-02-17T09:48:00.873Z,24.50
2018-02-17T09:49:00.867Z,22.50
2018-02-17T09:50:00.820Z,23.20
2018-02-17T09:51:00.814Z,23.70
2018-02-17T09:52:00.767Z,23.30
2018-02-17T09:53:00.734Z,23.50
2018-02-17T09:54:00.711Z,23.60
2018-02-17T09:55:00.690Z,23.10
2018-02-17T09:56:00.656Z,23.20
2018-02-17T09:57:00.629Z,23.00
2018-02-17T09:58:00.600Z,22.90
2018-02-17T09:59:00.576Z,22.40
2018-02-17T10:00:00.547Z,22.50
2018-02-17T10:01:00.519Z,22.60
2018-02-17T10:02:00.495Z,22.30
2018-02-17T10:03:00.466Z,22.70
2018-02-17T10:04:00.438Z,22.60
2018-02-17T10:05:00.408Z,22.80
2018-02-17T10:06:00.386Z,22.60
2018-02-17T10:07:00.358Z,23.10
2018-02-17T10:08:00.370Z,22.10
2018-02-17T10:09:00.299Z,22.70
2018-02-17T10:10:00.277Z,23.20
2018-02-17T10:11:00.252Z,22.70
2018-02-17T10:12:00.223Z,23.60
2018-02-17T10:13:00.194Z,21.80
2018-02-17T10:14:00.169Z,23.50
2018-02-17T10:15:00.141Z,22.60
2018-02-17T10:16:00.115Z,23.70
2018-02-17T10:17:00.099Z,23.10
2018-02-17T10:18:00.064Z,22.80
2018-02-17T10:19:00.036Z,22.60
2018-02-17T10:20:00.009Z,23.30
2018-02-17T10:20:59.981Z,22.50
2018-02-17T10:21:59.953Z,24.00
2018-02-17T10:22:59.924Z,22.90
2018-02-17T10:23:59.900Z,23.30
2018-02-17T10:24:59.873Z,23.40
2018-02-17T10:25:59.844Z,23.20
2018-02-17T10:26:59.818Z,23.70
2018-02-17T10:27:59.790Z,23.80
2018-02-17T10:28:59.763Z,22.70
2018-02-17T10:29:59.739Z,24.10
2018-02-17T10:30:59.758Z,23.70
2018-02-17T10:31:59.683Z,23.20
2018-02-17T10:32:59.654Z,23.50
2018-02-17T10:33:59.632Z,24.20
2018-02-17T10:34:59.604Z,23.40
2018-02-17T10:35:59.575Z,23.40
2018-02-17T10:36:59.548Z,24.90
2018-02-17T10:37:59.523Z,23.90
2018-02-17T10:38:59.499Z,24.10
2018-02-17T10:39:59.473Z,24.70
2018-02-17T10:40:59.441Z,25.10
2018-02-17T10:41:59.416Z,23.60
2018-02-17T10:42:59.423Z,24.20
2018-02-17T10:43:59.359Z,25.20
2018-02-17T10:44:59.332Z,25.00
2018-02-17T10:45:59.308Z,24.40
2018-02-17T10:46:59.281Z,24.70
2018-02-17T10:47:59.253Z,24.60
2018-02-17T10:48:59.225Z,24.80
2018-02-17T10:49:59.205Z,24.50
2018-02-17T10:50:59.174Z,24.40
2018-02-17T10:51:59.146Z,25.10
2018-02-17T10:52:59.119Z,24.30
2018-02-17T10:53:59.092Z,24.20
2018-02-17T10:54:59.069Z,23.40
2018-02-17T10:55:59.034Z,23.00
2018-02-17T10:56:59.013Z,23.30
2018-02-17T10:57:58.983Z,23.80
2018-02-17T10:58:58.959Z,23.50
2018-02-17T10:59:58.932Z,23.70
2018-02-17T11:00:58.906Z,23.70
2018-02-17T11:01:58.876Z,22.80
2018-02-17T11:02:58.860Z,23.30
2018-02-17T11:03:58.819Z,23.90
2018-02-17T11:04:58.799Z,22.80
2018-02-17T11:05:58.771Z,23.70
2018-02-17T11:06:58.745Z,23.70
2018-02-17T11:07:58.716Z,23.90
2018-02-17T11:08:58.693Z,26.30
2018-02-17T11:09:58.666Z,25.20
2018-02-17T11:10:58.636Z,26.10
2018-02-17T11:11:58.611Z,23.30
2018-02-17T11:12:58.589Z,26.80
2018-02-17T11:13:58.559Z,26.80
2018-02-17T11:14:58.527Z,25.70
2018-02-17T11:15:58.514Z,24.80
2018-02-17T11:16:58.474Z,23.90
2018-02-17T11:17:58.456Z,23.00
2018-02-17T11:18:58.424Z,22.80
2018-02-17T11:19:58.407Z,23.40
2018-02-17T11:20:58.369Z,23.30
2018-02-17T11:21:58.346Z,24.90
2018-02-17T11:22:58.349Z,26.40
2018-02-17T11:23:58.296Z,23.00
2018-02-17T11:24:58.265Z,23.30
2018-02-17T11:25:58.247Z,24.10
2018-02-17T11:26:58.217Z,25.00
2018-02-17T11:27:58.186Z,22.90
2018-02-17T11:28:58.159Z,21.20
2018-02-17T11:29:58.136Z,21.20
2018-02-17T11:30:58.111Z,20.30
2018-02-17T11:31:58.082Z,20.20
2018-02-17T11:32:58.064Z,21.40
2018-02-17T11:33:58.035Z,22.50
2018-02-17T11:34:58.005Z,21.80
2018-02-17T11:35:57.975Z,19.80
2018-02-17T11:36:57.951Z,23.00
2018-02-17T11:37:57.928Z,21.10
2018-02-17T11:38:57.901Z,21.50
2018-02-17T11:39:57.904Z,19.70
2018-02-17T11:40:57.847Z,20.60
2018-02-17T11:41:57.822Z,19.30
2018-02-17T11:42:57.802Z,20.40
2018-02-17T11:43:57.769Z,19.60
2018-02-17T11:44:57.740Z,21.00
2018-02-17T11:45:57.716Z,20.20
2018-02-17T11:46:57.689Z,21.90
2018-02-17T11:47:57.667Z,21.90
2018-02-17T11:48:57.637Z,19.10
2018-02-17T11:49:57.613Z,19.70
2018-02-17T11:50:57.587Z,20.80
2018-02-17T11:51:57.608Z,20.00
2018-02-17T11:52:57.535Z,21.70
2018-02-17T11:53:57.508Z,20.30
2018-02-17T11:54:57.481Z,20.30
2018-02-17T11:55:57.461Z,19.90
2018-02-17T11:56:57.434Z,20.10
2018-02-17T11:57:57.430Z,19.70
2018-02-17T11:58:57.379Z,19.10
2018-02-17T11:59:57.354Z,17.80
2018-02-17T12:00:57.329Z,18.40
2018-02-17T12:01:57.304Z,20.20
2018-02-17T12:02:57.299Z,19.70
2018-02-17T12:03:57.266Z,19.00
2018-02-17T12:04:57.229Z,18.80
2018-02-17T12:05:57.200Z,19.80
2018-02-17T12:06:57.173Z,19.90
2018-02-17T12:07:57.162Z,19.20
2018-02-17T12:08:57.170Z,20.00
2018-02-17T12:09:57.096Z,19.10
2018-02-17T12:10:57.073Z,19.10
2018-02-17T12:11:57.048Z,17.80
2018-02-17T12:12:57.021Z,19.00
2018-02-17T12:13:56.992Z,19.00
2018-02-17T12:14:56.970Z,19.90
2018-02-17T12:15:56.939Z,18.80
2018-02-17T12:16:56.925Z,18.90
2018-02-17T12:17:56.895Z,18.40
2018-02-17T12:18:56.863Z,18.00
2018-02-17T12:19:56.839Z,18.60
2018-02-17T12:20:56.816Z,18.90
2018-02-17T12:21:56.791Z,17.40
2018-02-17T12:22:56.762Z,17.90
2018-02-17T12:23:56.741Z,18.10
2018-02-17T12:24:56.730Z,18.90
2018-02-17T12:25:56.685Z,17.60
2018-02-17T12:26:56.676Z,17.10
2018-02-17T12:27:56.637Z,17.30
2018-02-17T12:28:56.608Z,18.50
2018-02-17T12:29:56.581Z,17.70
2018-02-17T12:30:56.560Z,17.90
2018-02-17T12:31:56.533Z,18.20
2018-02-17T12:32:56.506Z,18.30
2018-02-17T12:33:56.483Z,18.50
2018-02-17T12:34:56.456Z,17.70
2018-02-17T12:35:56.427Z,18.50
2018-02-17T12:36:56.405Z,19.10
2018-02-17T12:37:56.375Z,18.50
2018-02-17T12:38:56.354Z,18.60
2018-02-17T12:39:56.325Z,17.90
2018-02-17T12:40:56.302Z,18.10
2018-02-17T12:41:56.275Z,18.80
2018-02-17T12:42:56.253Z,18.50
2018-02-17T12:43:56.224Z,17.80
2018-02-17T12:44:56.199Z,18.90
2018-02-17T12:45:56.171Z,19.30
2018-02-17T12:46:56.148Z,18.30
2018-02-17T12:47:56.127Z,19.10
2018-02-17T12:48:56.101Z,18.90
2018-02-17T12:49:56.078Z,18.20
2018-02-17T12:50:56.057Z,18.60
2018-02-17T12:51:56.020Z,18.60